sensor_id;sensor_type;location;lat;lon;timestamp;pressure;altitude;pressure_sealevel;temperature;humidity
32747;BME280;19118;50.860;13.662;2024-02-21T00:04:26;97336.03;;;8.05;100.00
32747;BME280;19118;50.860;13.662;2024-02-21T00:09:27;97321.53;;;8.01;100.00
32747;BME280;19118;50.860;13.662;2024-02-21T00:14:28;97323.50;;;8.07;100.00
32747;BME280;19118;50.860;13.662;2024-02-21T00:19:28;97317.91;;;8.02;100.00
32747;BME280;19118;50.860;13.662;2024-02-21T00:24:28;97319.84;;;8.16;100.00
32747;BME280;19118;50.860;13.662;2024-02-21T00:29:29;97319.50;;;8.11;100.00
32747;BME280;19118;50.860;13.662;2024-02-21T00:34:29;97313.78;;;8.07;100.00
32747;BME280;19118;50.860;13.662;2024-02-21T00:39:29;97316.47;;;7.99;100.00
32747;BME280;19118;50.860;13.662;2024-02-21T00:44:30;97304.72;;;8.10;100.00
32747;BME280;19118;50.860;13.662;2024-02-21T00:49:30;97308.16;;;7.79;100.00
32747;BME280;19118;50.860;13.662;2024-02-21T00:54:30;97297.09;;;8.15;100.00
32747;BME280;19118;50.860;13.662;2024-02-21T00:59:31;97303.22;;;8.15;100.00
32747;BME280;19118;50.860;13.662;2024-02-21T01:04:32;97293.13;;;8.19;100.00
32747;BME280;19118;50.860;13.662;2024-02-21T01:09:32;97288.78;;;8.03;100.00
32747;BME280;19118;50.860;13.662;2024-02-21T01:14:32;97281.28;;;8.15;100.00
32747;BME280;19118;50.860;13.662;2024-02-21T01:19:33;97277.13;;;7.98;100.00
32747;BME280;19118;50.860;13.662;2024-02-21T01:24:33;97266.28;;;7.93;100.00
32747;BME280;19118;50.860;13.662;2024-02-21T01:29:34;97252.97;;;7.94;100.00
32747;BME280;19118;50.860;13.662;2024-02-21T01:34:34;97248.00;;;7.99;100.00
32747;BME280;19118;50.860;13.662;2024-02-21T01:39:34;97247.28;;;7.82;100.00
32747;BME280;19118;50.860;13.662;2024-02-21T01:44:35;97226.63;;;7.71;100.00
32747;BME280;19118;50.860;13.662;2024-02-21T01:49:36;97208.41;;;7.62;100.00
32747;BME280;19118;50.860;13.662;2024-02-21T01:54:37;97202.75;;;7.42;100.00
32747;BME280;19118;50.860;13.662;2024-02-21T01:59:38;97192.88;;;7.44;100.00
32747;BME280;19118;50.860;13.662;2024-02-21T02:04:39;97184.72;;;7.30;100.00
32747;BME280;19118;50.860;13.662;2024-02-21T02:09:40;97167.34;;;7.21;100.00
32747;BME280;19118;50.860;13.662;2024-02-21T02:14:40;97160.28;;;7.22;100.00
32747;BME280;19118;50.860;13.662;2024-02-21T02:19:40;97149.53;;;7.32;100.00
32747;BME280;19118;50.860;13.662;2024-02-21T02:24:41;97143.59;;;7.38;100.00
32747;BME280;19118;50.860;13.662;2024-02-21T02:29:41;97145.16;;;7.47;100.00
32747;BME280;19118;50.860;13.662;2024-02-21T02:34:41;97147.72;;;7.63;100.00
32747;BME280;19118;50.860;13.662;2024-02-21T02:39:42;97154.06;;;7.69;100.00
32747;BME280;19118;50.860;13.662;2024-02-21T02:44:42;97150.69;;;7.60;100.00
32747;BME280;19118;50.860;13.662;2024-02-21T02:49:42;97152.25;;;7.69;100.00
32747;BME280;19118;50.860;13.662;2024-02-21T02:54:44;97141.44;;;7.64;100.00
32747;BME280;19118;50.860;13.662;2024-02-21T02:59:48;97138.03;;;7.78;100.00
32747;BME280;19118;50.860;13.662;2024-02-21T03:04:49;97153.38;;;7.52;100.00
32747;BME280;19118;50.860;13.662;2024-02-21T03:09:49;97147.97;;;7.68;100.00
32747;BME280;19118;50.860;13.662;2024-02-21T03:14:50;97139.25;;;7.45;100.00
32747;BME280;19118;50.860;13.662;2024-02-21T03:19:50;97128.22;;;7.49;100.00
32747;BME280;19118;50.860;13.662;2024-02-21T03:24:53;97128.41;;;7.48;100.00
32747;BME280;19118;50.860;13.662;2024-02-21T03:29:53;97113.91;;;7.52;100.00
32747;BME280;19118;50.860;13.662;2024-02-21T03:34:53;97117.81;;;7.56;100.00
32747;BME280;19118;50.860;13.662;2024-02-21T03:39:55;97124.47;;;7.67;100.00
32747;BME280;19118;50.860;13.662;2024-02-21T03:44:55;97129.97;;;7.57;100.00
32747;BME280;19118;50.860;13.662;2024-02-21T03:49:56;97137.94;;;7.72;100.00
32747;BME280;19118;50.860;13.662;2024-02-21T03:54:57;97128.09;;;7.66;100.00
32747;BME280;19118;50.860;13.662;2024-02-21T03:59:57;97125.53;;;7.80;100.00
32747;BME280;19118;50.860;13.662;2024-02-21T04:04:58;97133.56;;;7.64;100.00
32747;BME280;19118;50.860;13.662;2024-02-21T04:09:59;97131.50;;;7.74;100.00
32747;BME280;19118;50.860;13.662;2024-02-21T04:14:59;97138.88;;;7.79;100.00
32747;BME280;19118;50.860;13.662;2024-02-21T04:20:04;97146.34;;;7.90;100.00
32747;BME280;19118;50.860;13.662;2024-02-21T04:25:05;97144.84;;;7.96;100.00
32747;BME280;19118;50.860;13.662;2024-02-21T04:30:06;97145.53;;;7.89;100.00
32747;BME280;19118;50.860;13.662;2024-02-21T04:35:07;97149.28;;;7.95;100.00
32747;BME280;19118;50.860;13.662;2024-02-21T04:40:08;97151.00;;;8.03;100.00
32747;BME280;19118;50.860;13.662;2024-02-21T04:45:09;97146.75;;;8.02;100.00
32747;BME280;19118;50.860;13.662;2024-02-21T04:50:10;97135.34;;;7.86;100.00
32747;BME280;19118;50.860;13.662;2024-02-21T04:55:10;97143.41;;;8.08;100.00
32747;BME280;19118;50.860;13.662;2024-02-21T05:00:11;97133.88;;;8.07;100.00
32747;BME280;19118;50.860;13.662;2024-02-21T05:05:11;97130.88;;;8.10;100.00
32747;BME280;19118;50.860;13.662;2024-02-21T05:10:11;97127.25;;;8.11;100.00
32747;BME280;19118;50.860;13.662;2024-02-21T05:15:12;97118.94;;;7.99;100.00
32747;BME280;19118;50.860;13.662;2024-02-21T05:20:12;97115.88;;;7.96;100.00
32747;BME280;19118;50.860;13.662;2024-02-21T05:25:12;97106.91;;;8.05;100.00
32747;BME280;19118;50.860;13.662;2024-02-21T05:30:13;97120.50;;;7.94;100.00
32747;BME280;19118;50.860;13.662;2024-02-21T05:35:13;97113.03;;;7.82;100.00
32747;BME280;19118;50.860;13.662;2024-02-21T05:40:14;97110.66;;;7.87;100.00
32747;BME280;19118;50.860;13.662;2024-02-21T05:45:14;97104.63;;;7.79;100.00
32747;BME280;19118;50.860;13.662;2024-02-21T05:50:15;97098.44;;;7.95;100.00
32747;BME280;19118;50.860;13.662;2024-02-21T05:55:16;97095.22;;;7.84;100.00
32747;BME280;19118;50.860;13.662;2024-02-21T06:00:16;97093.50;;;7.92;100.00
32747;BME280;19118;50.860;13.662;2024-02-21T06:05:17;97077.19;;;7.96;100.00
32747;BME280;19118;50.860;13.662;2024-02-21T06:10:17;97074.56;;;7.96;100.00
32747;BME280;19118;50.860;13.662;2024-02-21T06:15:17;97071.38;;;8.01;100.00
32747;BME280;19118;50.860;13.662;2024-02-21T06:20:18;97066.75;;;8.03;100.00
32747;BME280;19118;50.860;13.662;2024-02-21T06:25:18;97050.66;;;7.98;100.00
32747;BME280;19118;50.860;13.662;2024-02-21T06:30:18;97043.41;;;8.00;100.00
32747;BME280;19118;50.860;13.662;2024-02-21T06:35:19;97030.88;;;8.02;100.00
32747;BME280;19118;50.860;13.662;2024-02-21T06:40:21;97011.44;;;8.03;100.00
32747;BME280;19118;50.860;13.662;2024-02-21T06:45:22;97002.47;;;7.97;100.00
32747;BME280;19118;50.860;13.662;2024-02-21T06:50:22;97009.72;;;8.10;100.00
32747;BME280;19118;50.860;13.662;2024-02-21T06:55:23;97000.81;;;8.11;100.00
32747;BME280;19118;50.860;13.662;2024-02-21T07:00:23;97004.25;;;8.26;100.00
32747;BME280;19118;50.860;13.662;2024-02-21T07:05:24;97015.97;;;8.24;100.00
32747;BME280;19118;50.860;13.662;2024-02-21T07:10:24;97017.72;;;8.31;100.00
32747;BME280;19118;50.860;13.662;2024-02-21T07:15:24;97000.38;;;8.37;100.00
32747;BME280;19118;50.860;13.662;2024-02-21T07:20:26;97017.44;;;8.11;100.00
32747;BME280;19118;50.860;13.662;2024-02-21T07:25:27;97023.16;;;8.59;100.00
32747;BME280;19118;50.860;13.662;2024-02-21T07:30:27;97032.78;;;8.67;100.00
32747;BME280;19118;50.860;13.662;2024-02-21T07:35:28;97035.34;;;8.60;100.00
32747;BME280;19118;50.860;13.662;2024-02-21T07:40:28;97058.94;;;8.83;100.00
32747;BME280;19118;50.860;13.662;2024-02-21T07:45:28;97064.25;;;8.68;100.00
32747;BME280;19118;50.860;13.662;2024-02-21T07:50:29;97065.72;;;9.07;100.00
32747;BME280;19118;50.860;13.662;2024-02-21T07:55:29;97052.09;;;9.25;100.00
32747;BME280;19118;50.860;13.662;2024-02-21T08:00:29;97065.50;;;9.66;100.00
32747;BME280;19118;50.860;13.662;2024-02-21T08:05:30;97076.16;;;10.07;100.00
32747;BME280;19118;50.860;13.662;2024-02-21T08:10:30;97082.84;;;10.25;100.00
32747;BME280;19118;50.860;13.662;2024-02-21T08:15:31;97087.84;;;10.47;100.00
32747;BME280;19118;50.860;13.662;2024-02-21T08:20:32;97073.34;;;10.37;100.00
32747;BME280;19118;50.860;13.662;2024-02-21T08:25:32;97081.72;;;10.19;100.00
32747;BME280;19118;50.860;13.662;2024-02-21T08:30:32;97113.34;;;10.06;100.00
32747;BME280;19118;50.860;13.662;2024-02-21T08:35:32;97117.91;;;9.90;100.00
32747;BME280;19118;50.860;13.662;2024-02-21T08:40:33;97101.81;;;9.43;100.00
32747;BME280;19118;50.860;13.662;2024-02-21T08:45:35;97074.34;;;9.58;100.00
32747;BME280;19118;50.860;13.662;2024-02-21T08:50:35;97072.69;;;10.00;100.00
32747;BME280;19118;50.860;13.662;2024-02-21T08:55:36;97077.56;;;10.03;100.00
32747;BME280;19118;50.860;13.662;2024-02-21T09:00:36;97068.84;;;10.31;100.00
32747;BME280;19118;50.860;13.662;2024-02-21T09:05:37;97068.22;;;9.79;100.00
32747;BME280;19118;50.860;13.662;2024-02-21T09:10:37;97068.69;;;10.11;100.00
32747;BME280;19118;50.860;13.662;2024-02-21T09:15:37;97091.31;;;10.48;100.00
32747;BME280;19118;50.860;13.662;2024-02-21T09:20:38;97103.66;;;10.75;100.00
32747;BME280;19118;50.860;13.662;2024-02-21T09:25:38;97104.31;;;10.43;100.00
32747;BME280;19118;50.860;13.662;2024-02-21T09:30:38;97108.00;;;10.48;100.00
32747;BME280;19118;50.860;13.662;2024-02-21T09:35:39;97112.31;;;10.91;100.00
32747;BME280;19118;50.860;13.662;2024-02-21T09:40:39;97119.00;;;11.34;100.00
32747;BME280;19118;50.860;13.662;2024-02-21T09:45:46;97131.53;;;12.00;100.00
32747;BME280;19118;50.860;13.662;2024-02-21T09:50:47;97161.53;;;11.94;100.00
32747;BME280;19118;50.860;13.662;2024-02-21T09:55:48;97150.81;;;11.00;100.00
32747;BME280;19118;50.860;13.662;2024-02-21T10:00:48;97155.03;;;10.88;100.00
32747;BME280;19118;50.860;13.662;2024-02-21T10:05:49;97146.50;;;10.92;100.00
32747;BME280;19118;50.860;13.662;2024-02-21T10:10:52;97133.25;;;11.33;100.00
32747;BME280;19118;50.860;13.662;2024-02-21T10:16:08;97148.78;;;11.63;100.00
32747;BME280;19118;50.860;13.662;2024-02-21T10:21:09;97148.78;;;11.56;100.00
32747;BME280;19118;50.860;13.662;2024-02-21T10:26:09;97139.34;;;11.41;100.00
32747;BME280;19118;50.860;13.662;2024-02-21T10:31:26;97131.22;;;11.35;100.00
32747;BME280;19118;50.860;13.662;2024-02-21T10:36:27;97132.03;;;11.43;100.00
32747;BME280;19118;50.860;13.662;2024-02-21T10:41:28;97129.38;;;10.88;100.00
32747;BME280;19118;50.860;13.662;2024-02-21T10:46:30;97116.72;;;10.77;100.00
32747;BME280;19118;50.860;13.662;2024-02-21T10:51:33;97108.50;;;10.31;100.00
32747;BME280;19118;50.860;13.662;2024-02-21T10:56:35;97089.81;;;10.73;100.00
32747;BME280;19118;50.860;13.662;2024-02-21T11:01:38;97083.72;;;10.73;100.00
32747;BME280;19118;50.860;13.662;2024-02-21T11:06:40;97074.03;;;10.52;100.00
32747;BME280;19118;50.860;13.662;2024-02-21T11:11:43;97067.88;;;10.79;100.00
32747;BME280;19118;50.860;13.662;2024-02-21T11:16:44;97074.22;;;10.85;100.00
32747;BME280;19118;50.860;13.662;2024-02-21T11:21:45;97071.22;;;11.01;100.00
32747;BME280;19118;50.860;13.662;2024-02-21T11:26:48;97063.09;;;11.03;100.00
32747;BME280;19118;50.860;13.662;2024-02-21T11:31:49;97053.38;;;11.30;100.00
32747;BME280;19118;50.860;13.662;2024-02-21T11:36:52;97042.69;;;11.91;100.00
32747;BME280;19118;50.860;13.662;2024-02-21T11:42:05;97049.53;;;12.45;100.00
32747;BME280;19118;50.860;13.662;2024-02-21T11:47:08;97041.00;;;12.94;100.00
32747;BME280;19118;50.860;13.662;2024-02-21T11:52:09;97031.00;;;12.38;100.00
32747;BME280;19118;50.860;13.662;2024-02-21T11:57:10;97037.13;;;12.26;100.00
32747;BME280;19118;50.860;13.662;2024-02-21T12:02:12;97013.75;;;12.67;100.00
32747;BME280;19118;50.860;13.662;2024-02-21T12:07:12;96997.97;;;12.21;100.00
32747;BME280;19118;50.860;13.662;2024-02-21T12:12:12;96982.94;;;12.02;100.00
32747;BME280;19118;50.860;13.662;2024-02-21T12:17:13;96966.25;;;11.68;100.00
32747;BME280;19118;50.860;13.662;2024-02-21T12:22:18;96960.53;;;11.58;100.00
32747;BME280;19118;50.860;13.662;2024-02-21T12:27:19;96951.13;;;12.02;100.00
32747;BME280;19118;50.860;13.662;2024-02-21T12:32:20;96921.28;;;12.26;100.00
32747;BME280;19118;50.860;13.662;2024-02-21T12:37:22;96925.41;;;12.15;100.00
32747;BME280;19118;50.860;13.662;2024-02-21T12:42:22;96898.00;;;12.35;100.00
32747;BME280;19118;50.860;13.662;2024-02-21T12:47:23;96888.16;;;12.48;100.00
32747;BME280;19118;50.860;13.662;2024-02-21T12:52:24;96898.91;;;12.53;100.00
32747;BME280;19118;50.860;13.662;2024-02-21T12:57:25;96900.47;;;12.68;100.00
32747;BME280;19118;50.860;13.662;2024-02-21T13:02:26;96892.03;;;12.77;100.00
32747;BME280;19118;50.860;13.662;2024-02-21T13:07:26;96890.03;;;12.73;100.00
32747;BME280;19118;50.860;13.662;2024-02-21T13:12:26;96883.41;;;12.89;100.00
32747;BME280;19118;50.860;13.662;2024-02-21T13:17:27;96876.03;;;12.91;100.00
32747;BME280;19118;50.860;13.662;2024-02-21T13:22:30;96878.25;;;12.69;100.00
32747;BME280;19118;50.860;13.662;2024-02-21T13:27:30;96870.34;;;12.87;100.00
32747;BME280;19118;50.860;13.662;2024-02-21T13:32:32;96862.81;;;12.52;100.00
32747;BME280;19118;50.860;13.662;2024-02-21T13:37:32;96859.22;;;13.03;100.00
32747;BME280;19118;50.860;13.662;2024-02-21T13:42:32;96848.41;;;12.73;100.00
32747;BME280;19118;50.860;13.662;2024-02-21T13:47:33;96839.41;;;12.74;100.00
32747;BME280;19118;50.860;13.662;2024-02-21T13:52:34;96830.78;;;12.79;100.00
32747;BME280;19118;50.860;13.662;2024-02-21T13:57:35;96819.38;;;12.78;100.00
32747;BME280;19118;50.860;13.662;2024-02-21T14:02:36;96815.53;;;12.99;100.00
32747;BME280;19118;50.860;13.662;2024-02-21T14:07:38;96809.75;;;13.09;100.00
32747;BME280;19118;50.860;13.662;2024-02-21T14:12:38;96808.22;;;12.95;100.00
32747;BME280;19118;50.860;13.662;2024-02-21T14:17:40;96805.97;;;13.23;100.00
32747;BME280;19118;50.860;13.662;2024-02-21T14:22:40;96802.06;;;13.26;100.00
32747;BME280;19118;50.860;13.662;2024-02-21T14:27:40;96792.47;;;13.25;100.00
32747;BME280;19118;50.860;13.662;2024-02-21T14:32:43;96776.53;;;13.25;100.00
32747;BME280;19118;50.860;13.662;2024-02-21T14:37:44;96783.19;;;13.52;100.00
32747;BME280;19118;50.860;13.662;2024-02-21T14:42:45;96778.03;;;13.39;99.40
32747;BME280;19118;50.860;13.662;2024-02-21T14:47:46;96779.22;;;13.43;100.00
32747;BME280;19118;50.860;13.662;2024-02-21T14:52:46;96773.75;;;13.38;96.85
32747;BME280;19118;50.860;13.662;2024-02-21T14:57:47;96774.16;;;13.17;94.59
32747;BME280;19118;50.860;13.662;2024-02-21T15:02:47;96763.22;;;13.06;94.22
32747;BME280;19118;50.860;13.662;2024-02-21T15:07:47;96762.47;;;12.74;100.00
32747;BME280;19118;50.860;13.662;2024-02-21T15:12:48;96769.06;;;12.65;100.00
32747;BME280;19118;50.860;13.662;2024-02-21T15:17:48;96757.31;;;12.54;100.00
32747;BME280;19118;50.860;13.662;2024-02-21T15:22:48;96754.06;;;12.21;100.00
32747;BME280;19118;50.860;13.662;2024-02-21T15:27:49;96748.84;;;12.08;100.00
32747;BME280;19118;50.860;13.662;2024-02-21T15:32:50;96744.22;;;11.97;100.00
32747;BME280;19118;50.860;13.662;2024-02-21T15:37:50;96737.59;;;11.74;100.00
32747;BME280;19118;50.860;13.662;2024-02-21T15:42:50;96718.59;;;11.39;100.00
32747;BME280;19118;50.860;13.662;2024-02-21T15:47:51;96695.25;;;11.16;100.00
32747;BME280;19118;50.860;13.662;2024-02-21T15:52:54;96691.25;;;10.81;100.00
32747;BME280;19118;50.860;13.662;2024-02-21T15:57:55;96664.66;;;10.49;100.00
32747;BME280;19118;50.860;13.662;2024-02-21T16:02:55;96645.31;;;10.15;100.00
32747;BME280;19118;50.860;13.662;2024-02-21T16:07:57;96620.50;;;9.83;100.00
32747;BME280;19118;50.860;13.662;2024-02-21T16:12:57;96594.50;;;9.60;100.00
32747;BME280;19118;50.860;13.662;2024-02-21T16:17:58;96565.84;;;9.31;100.00
32747;BME280;19118;50.860;13.662;2024-02-21T16:22:59;96544.47;;;9.06;100.00
32747;BME280;19118;50.860;13.662;2024-02-21T16:28:03;96521.94;;;8.97;100.00
32747;BME280;19118;50.860;13.662;2024-02-21T16:33:04;96504.38;;;8.69;100.00
32747;BME280;19118;50.860;13.662;2024-02-21T16:38:04;96493.25;;;8.33;100.00
32747;BME280;19118;50.860;13.662;2024-02-21T16:43:05;96487.28;;;8.11;100.00
32747;BME280;19118;50.860;13.662;2024-02-21T16:48:06;96464.94;;;8.00;100.00
32747;BME280;19118;50.860;13.662;2024-02-21T16:53:06;96458.19;;;7.84;100.00
32747;BME280;19118;50.860;13.662;2024-02-21T16:58:07;96444.47;;;7.61;100.00
32747;BME280;19118;50.860;13.662;2024-02-21T17:03:08;96435.81;;;7.39;100.00
32747;BME280;19118;50.860;13.662;2024-02-21T17:08:09;96425.22;;;7.33;100.00
32747;BME280;19118;50.860;13.662;2024-02-21T17:13:09;96424.44;;;7.11;100.00
32747;BME280;19118;50.860;13.662;2024-02-21T17:18:09;96419.66;;;6.93;100.00
32747;BME280;19118;50.860;13.662;2024-02-21T17:23:10;96422.03;;;6.88;100.00
32747;BME280;19118;50.860;13.662;2024-02-21T17:28:12;96420.72;;;6.77;100.00
32747;BME280;19118;50.860;13.662;2024-02-21T17:33:13;96413.13;;;6.67;100.00
32747;BME280;19118;50.860;13.662;2024-02-21T17:38:14;96430.91;;;6.65;100.00
32747;BME280;19118;50.860;13.662;2024-02-21T17:43:15;96431.78;;;6.51;100.00
32747;BME280;19118;50.860;13.662;2024-02-21T17:48:15;96447.78;;;6.56;100.00
32747;BME280;19118;50.860;13.662;2024-02-21T17:53:15;96462.72;;;6.92;100.00
32747;BME280;19118;50.860;13.662;2024-02-21T17:58:17;96484.38;;;7.15;100.00
32747;BME280;19118;50.860;13.662;2024-02-21T18:03:18;96492.16;;;7.51;100.00
32747;BME280;19118;50.860;13.662;2024-02-21T18:08:20;96496.16;;;7.75;100.00
32747;BME280;19118;50.860;13.662;2024-02-21T18:13:20;96494.50;;;7.96;100.00
32747;BME280;19118;50.860;13.662;2024-02-21T18:18:22;96500.34;;;8.32;100.00
32747;BME280;19118;50.860;13.662;2024-02-21T18:23:22;96494.84;;;8.62;100.00
32747;BME280;19118;50.860;13.662;2024-02-21T18:28:22;96474.59;;;8.75;100.00
32747;BME280;19118;50.860;13.662;2024-02-21T18:33:23;96465.28;;;8.80;100.00
32747;BME280;19118;50.860;13.662;2024-02-21T18:38:23;96463.47;;;8.93;100.00
32747;BME280;19118;50.860;13.662;2024-02-21T18:43:24;96469.19;;;9.03;100.00
32747;BME280;19118;50.860;13.662;2024-02-21T18:48:24;96458.06;;;9.21;100.00
32747;BME280;19118;50.860;13.662;2024-02-21T18:53:24;96449.94;;;9.23;100.00
32747;BME280;19118;50.860;13.662;2024-02-21T18:58:25;96440.38;;;9.35;100.00
32747;BME280;19118;50.860;13.662;2024-02-21T19:03:25;96436.94;;;9.54;100.00
32747;BME280;19118;50.860;13.662;2024-02-21T19:08:25;96423.75;;;9.54;100.00
32747;BME280;19118;50.860;13.662;2024-02-21T19:13:26;96415.78;;;9.68;100.00
32747;BME280;19118;50.860;13.662;2024-02-21T19:18:26;96410.69;;;9.86;97.20
32747;BME280;19118;50.860;13.662;2024-02-21T19:23:27;96405.38;;;9.99;89.05
32747;BME280;19118;50.860;13.662;2024-02-21T19:28:28;96389.44;;;10.26;86.03
32747;BME280;19118;50.860;13.662;2024-02-21T19:33:29;96372.34;;;10.28;82.48
32747;BME280;19118;50.860;13.662;2024-02-21T19:38:30;96367.03;;;10.35;81.41
32747;BME280;19118;50.860;13.662;2024-02-21T19:43:30;96350.19;;;10.61;79.13
32747;BME280;19118;50.860;13.662;2024-02-21T19:48:31;96348.16;;;10.63;77.17
32747;BME280;19118;50.860;13.662;2024-02-21T19:53:31;96325.50;;;10.73;77.88
32747;BME280;19118;50.860;13.662;2024-02-21T19:58:35;96320.31;;;10.85;77.91
32747;BME280;19118;50.860;13.662;2024-02-21T20:03:35;96310.53;;;10.86;80.71
32747;BME280;19118;50.860;13.662;2024-02-21T20:08:36;96307.75;;;10.81;84.48
32747;BME280;19118;50.860;13.662;2024-02-21T20:13:36;96310.28;;;10.69;88.33
32747;BME280;19118;50.860;13.662;2024-02-21T20:18:37;96296.16;;;10.50;91.79
32747;BME280;19118;50.860;13.662;2024-02-21T20:23:37;96285.59;;;10.50;95.16
32747;BME280;19118;50.860;13.662;2024-02-21T20:28:38;96296.56;;;10.54;97.41
32747;BME280;19118;50.860;13.662;2024-02-21T20:33:38;96283.81;;;10.44;97.29
32747;BME280;19118;50.860;13.662;2024-02-21T20:38:38;96274.47;;;10.41;99.21
32747;BME280;19118;50.860;13.662;2024-02-21T20:43:39;96273.66;;;10.41;99.35
32747;BME280;19118;50.860;13.662;2024-02-21T20:48:40;96269.41;;;10.40;98.24
32747;BME280;19118;50.860;13.662;2024-02-21T20:53:40;96267.38;;;10.42;100.00
32747;BME280;19118;50.860;13.662;2024-02-21T20:58:41;96253.59;;;10.33;100.00
32747;BME280;19118;50.860;13.662;2024-02-21T21:03:42;96242.59;;;10.36;98.72
32747;BME280;19118;50.860;13.662;2024-02-21T21:08:42;96244.78;;;10.46;95.75
32747;BME280;19118;50.860;13.662;2024-02-21T21:13:43;96233.31;;;10.27;90.57
32747;BME280;19118;50.860;13.662;2024-02-21T21:18:43;96235.66;;;10.42;86.97
32747;BME280;19118;50.860;13.662;2024-02-21T21:23:43;96236.41;;;10.49;85.61
32747;BME280;19118;50.860;13.662;2024-02-21T21:28:44;96228.03;;;10.52;86.76
32747;BME280;19118;50.860;13.662;2024-02-21T21:33:44;96222.44;;;10.42;85.27
32747;BME280;19118;50.860;13.662;2024-02-21T21:38:45;96208.22;;;10.61;81.88
32747;BME280;19118;50.860;13.662;2024-02-21T21:43:48;96204.41;;;10.57;79.51
32747;BME280;19118;50.860;13.662;2024-02-21T21:48:48;96196.50;;;10.57;78.01
32747;BME280;19118;50.860;13.662;2024-02-21T21:53:48;96187.09;;;10.61;74.66
32747;BME280;19118;50.860;13.662;2024-02-21T21:58:50;96195.59;;;10.63;72.33
32747;BME280;19118;50.860;13.662;2024-02-21T22:03:51;96191.06;;;10.70;70.45
32747;BME280;19118;50.860;13.662;2024-02-21T22:08:52;96178.38;;;10.79;69.17
32747;BME280;19118;50.860;13.662;2024-02-21T22:13:52;96179.25;;;10.73;69.87
32747;BME280;19118;50.860;13.662;2024-02-21T22:18:53;96186.59;;;10.71;71.17
32747;BME280;19118;50.860;13.662;2024-02-21T22:23:54;96191.81;;;10.77;71.29
32747;BME280;19118;50.860;13.662;2024-02-21T22:28:54;96179.63;;;10.76;70.07
32747;BME280;19118;50.860;13.662;2024-02-21T22:33:56;96181.97;;;10.85;70.28
32747;BME280;19118;50.860;13.662;2024-02-21T22:38:57;96179.19;;;10.79;70.46
32747;BME280;19118;50.860;13.662;2024-02-21T22:43:57;96181.66;;;10.74;69.97
32747;BME280;19118;50.860;13.662;2024-02-21T22:48:58;96183.59;;;10.86;70.61
32747;BME280;19118;50.860;13.662;2024-02-21T22:53:58;96182.19;;;10.83;70.48
32747;BME280;19118;50.860;13.662;2024-02-21T22:58:59;96176.38;;;10.74;71.51
32747;BME280;19118;50.860;13.662;2024-02-21T23:03:59;96168.81;;;10.96;71.88
32747;BME280;19118;50.860;13.662;2024-02-21T23:09:00;96162.31;;;10.99;73.15
32747;BME280;19118;50.860;13.662;2024-02-21T23:14:01;96150.38;;;11.08;74.28
32747;BME280;19118;50.860;13.662;2024-02-21T23:19:01;96161.41;;;11.05;77.30
32747;BME280;19118;50.860;13.662;2024-02-21T23:24:01;96162.97;;;11.13;78.13
32747;BME280;19118;50.860;13.662;2024-02-21T23:29:02;96143.19;;;11.15;80.44
32747;BME280;19118;50.860;13.662;2024-02-21T23:34:04;96134.66;;;11.13;84.97
32747;BME280;19118;50.860;13.662;2024-02-21T23:39:04;96124.78;;;11.20;88.80
32747;BME280;19118;50.860;13.662;2024-02-21T23:44:06;96117.22;;;11.24;90.90
32747;BME280;19118;50.860;13.662;2024-02-21T23:49:06;96099.81;;;11.16;93.80
32747;BME280;19118;50.860;13.662;2024-02-21T23:54:07;96090.63;;;11.19;93.91
32747;BME280;19118;50.860;13.662;2024-02-21T23:59:07;96075.41;;;11.14;93.82
